sensor_id;sensor_type;location;lat;lon;timestamp;P1;durP1;ratioP1;P2;durP2;ratioP2
21661;SDS011;10992;48.170;8.596;2022-08-07T00:01:19;11.80;;;8.68;;
21661;SDS011;10992;48.170;8.596;2022-08-07T00:04:06;9.38;;;8.48;;
21661;SDS011;10992;48.170;8.596;2022-08-07T00:06:36;9.52;;;8.63;;
21661;SDS011;10992;48.170;8.596;2022-08-07T00:09:16;11.23;;;8.60;;
21661;SDS011;10992;48.170;8.596;2022-08-07T00:11:47;9.82;;;8.13;;
21661;SDS011;10992;48.170;8.596;2022-08-07T00:14:24;10.10;;;8.45;;
21661;SDS011;10992;48.170;8.596;2022-08-07T00:16:57;7.90;;;7.07;;
21661;SDS011;10992;48.170;8.596;2022-08-07T00:19:25;8.05;;;7.25;;
21661;SDS011;10992;48.170;8.596;2022-08-07T00:22:13;7.32;;;6.63;;
21661;SDS011;10992;48.170;8.596;2022-08-07T00:25:02;8.45;;;5.93;;
21661;SDS011;10992;48.170;8.596;2022-08-07T00:27:32;7.55;;;6.72;;
21661;SDS011;10992;48.170;8.596;2022-08-07T00:30:19;7.07;;;5.45;;
21661;SDS011;10992;48.170;8.596;2022-08-07T00:32:56;8.77;;;5.82;;
21661;SDS011;10992;48.170;8.596;2022-08-07T00:35:25;5.45;;;4.95;;
21661;SDS011;10992;48.170;8.596;2022-08-07T00:37:55;5.47;;;4.90;;
21661;SDS011;10992;48.170;8.596;2022-08-07T00:40:23;5.75;;;5.25;;
21661;SDS011;10992;48.170;8.596;2022-08-07T00:43:06;5.85;;;5.25;;
21661;SDS011;10992;48.170;8.596;2022-08-07T00:45:57;8.32;;;5.18;;
21661;SDS011;10992;48.170;8.596;2022-08-07T00:48:24;6.20;;;5.10;;
21661;SDS011;10992;48.170;8.596;2022-08-07T00:50:57;6.50;;;5.20;;
21661;SDS011;10992;48.170;8.596;2022-08-07T00:53:26;5.45;;;4.95;;
21661;SDS011;10992;48.170;8.596;2022-08-07T00:56:09;5.35;;;4.82;;
21661;SDS011;10992;48.170;8.596;2022-08-07T00:58:42;5.28;;;4.50;;
21661;SDS011;10992;48.170;8.596;2022-08-07T01:01:15;5.35;;;4.63;;
21661;SDS011;10992;48.170;8.596;2022-08-07T01:03:43;6.28;;;4.40;;
21661;SDS011;10992;48.170;8.596;2022-08-07T01:06:23;5.25;;;4.53;;
21661;SDS011;10992;48.170;8.596;2022-08-07T01:08:51;6.32;;;4.60;;
21661;SDS011;10992;48.170;8.596;2022-08-07T01:11:23;5.35;;;3.88;;
21661;SDS011;10992;48.170;8.596;2022-08-07T01:14:10;4.38;;;3.78;;
21661;SDS011;10992;48.170;8.596;2022-08-07T01:16:42;4.53;;;3.80;;
21661;SDS011;10992;48.170;8.596;2022-08-07T01:19:15;4.18;;;3.80;;
21661;SDS011;10992;48.170;8.596;2022-08-07T01:21:49;3.67;;;3.38;;
21661;SDS011;10992;48.170;8.596;2022-08-07T01:24:23;4.60;;;4.20;;
21661;SDS011;10992;48.170;8.596;2022-08-07T01:26:51;4.60;;;3.95;;
21661;SDS011;10992;48.170;8.596;2022-08-07T01:29:21;4.75;;;4.35;;
21661;SDS011;10992;48.170;8.596;2022-08-07T01:31:57;4.88;;;4.38;;
21661;SDS011;10992;48.170;8.596;2022-08-07T01:34:30;4.80;;;4.38;;
21661;SDS011;10992;48.170;8.596;2022-08-07T01:37:04;5.38;;;4.38;;
21661;SDS011;10992;48.170;8.596;2022-08-07T01:39:36;4.97;;;4.57;;
21661;SDS011;10992;48.170;8.596;2022-08-07T01:42:32;4.97;;;3.80;;
21661;SDS011;10992;48.170;8.596;2022-08-07T01:45:20;4.05;;;3.20;;
21661;SDS011;10992;48.170;8.596;2022-08-07T01:47:56;5.05;;;3.40;;
21661;SDS011;10992;48.170;8.596;2022-08-07T01:50:48;4.07;;;3.35;;
21661;SDS011;10992;48.170;8.596;2022-08-07T01:53:22;3.25;;;2.95;;
21661;SDS011;10992;48.170;8.596;2022-08-07T01:56:12;4.85;;;3.10;;
21661;SDS011;10992;48.170;8.596;2022-08-07T01:58:51;3.60;;;2.70;;
21661;SDS011;10992;48.170;8.596;2022-08-07T02:01:26;3.67;;;2.72;;
21661;SDS011;10992;48.170;8.596;2022-08-07T02:04:17;4.25;;;3.10;;
21661;SDS011;10992;48.170;8.596;2022-08-07T02:06:56;2.83;;;2.60;;
21661;SDS011;10992;48.170;8.596;2022-08-07T02:09:27;2.58;;;2.33;;
21661;SDS011;10992;48.170;8.596;2022-08-07T02:12:18;2.58;;;2.35;;
21661;SDS011;10992;48.170;8.596;2022-08-07T02:14:57;4.43;;;2.58;;
21661;SDS011;10992;48.170;8.596;2022-08-07T02:17:44;6.47;;;2.47;;
21661;SDS011;10992;48.170;8.596;2022-08-07T02:20:15;5.75;;;2.58;;
21661;SDS011;10992;48.170;8.596;2022-08-07T02:22:51;5.20;;;2.65;;
21661;SDS011;10992;48.170;8.596;2022-08-07T02:25:20;2.42;;;2.20;;
21661;SDS011;10992;48.170;8.596;2022-08-07T02:28:13;3.90;;;2.17;;
21661;SDS011;10992;48.170;8.596;2022-08-07T02:30:53;3.15;;;2.08;;
21661;SDS011;10992;48.170;8.596;2022-08-07T02:33:22;2.75;;;1.75;;
21661;SDS011;10992;48.170;8.596;2022-08-07T02:36:14;3.15;;;1.83;;
21661;SDS011;10992;48.170;8.596;2022-08-07T02:39:03;1.98;;;1.60;;
21661;SDS011;10992;48.170;8.596;2022-08-07T02:41:53;2.03;;;1.58;;
21661;SDS011;10992;48.170;8.596;2022-08-07T02:44:23;2.58;;;1.90;;
21661;SDS011;10992;48.170;8.596;2022-08-07T02:47:03;4.55;;;1.80;;
21661;SDS011;10992;48.170;8.596;2022-08-07T02:49:33;3.38;;;1.88;;
21661;SDS011;10992;48.170;8.596;2022-08-07T02:52:43;3.15;;;1.70;;
21661;SDS011;10992;48.170;8.596;2022-08-07T02:55:42;3.63;;;1.70;;
21661;SDS011;10992;48.170;8.596;2022-08-07T02:58:32;3.78;;;1.60;;
21661;SDS011;10992;48.170;8.596;2022-08-07T03:01:01;2.72;;;1.40;;
21661;SDS011;10992;48.170;8.596;2022-08-07T03:03:30;2.42;;;1.20;;
21661;SDS011;10992;48.170;8.596;2022-08-07T03:06:21;1.67;;;1.35;;
21661;SDS011;10992;48.170;8.596;2022-08-07T03:09:03;2.42;;;1.55;;
21661;SDS011;10992;48.170;8.596;2022-08-07T03:11:36;1.83;;;1.55;;
21661;SDS011;10992;48.170;8.596;2022-08-07T03:14:25;4.50;;;1.70;;
21661;SDS011;10992;48.170;8.596;2022-08-07T03:16:53;3.42;;;1.77;;
21661;SDS011;10992;48.170;8.596;2022-08-07T03:19:22;3.15;;;1.65;;
21661;SDS011;10992;48.170;8.596;2022-08-07T03:21:56;3.13;;;1.73;;
21661;SDS011;10992;48.170;8.596;2022-08-07T03:24:24;3.00;;;1.67;;
21661;SDS011;10992;48.170;8.596;2022-08-07T03:26:59;3.28;;;1.70;;
21661;SDS011;10992;48.170;8.596;2022-08-07T03:29:39;3.33;;;1.35;;
21661;SDS011;10992;48.170;8.596;2022-08-07T03:32:20;3.60;;;1.80;;
21661;SDS011;10992;48.170;8.596;2022-08-07T03:34:52;4.45;;;1.60;;
21661;SDS011;10992;48.170;8.596;2022-08-07T03:37:43;1.98;;;1.30;;
21661;SDS011;10992;48.170;8.596;2022-08-07T03:40:23;2.40;;;1.23;;
21661;SDS011;10992;48.170;8.596;2022-08-07T03:43:02;2.30;;;1.45;;
21661;SDS011;10992;48.170;8.596;2022-08-07T03:45:40;2.85;;;1.33;;
21661;SDS011;10992;48.170;8.596;2022-08-07T03:48:14;1.77;;;1.20;;
21661;SDS011;10992;48.170;8.596;2022-08-07T03:50:43;1.80;;;1.35;;
21661;SDS011;10992;48.170;8.596;2022-08-07T03:53:26;2.22;;;1.27;;
21661;SDS011;10992;48.170;8.596;2022-08-07T03:56:17;1.52;;;1.30;;
21661;SDS011;10992;48.170;8.596;2022-08-07T03:59:00;1.95;;;1.40;;
21661;SDS011;10992;48.170;8.596;2022-08-07T04:01:41;1.65;;;1.33;;
21661;SDS011;10992;48.170;8.596;2022-08-07T04:04:11;3.90;;;1.52;;
21661;SDS011;10992;48.170;8.596;2022-08-07T04:06:44;3.08;;;1.55;;
21661;SDS011;10992;48.170;8.596;2022-08-07T04:09:18;2.25;;;1.60;;
21661;SDS011;10992;48.170;8.596;2022-08-07T04:11:51;2.80;;;1.50;;
21661;SDS011;10992;48.170;8.596;2022-08-07T04:14:39;1.95;;;1.48;;
21661;SDS011;10992;48.170;8.596;2022-08-07T04:17:15;1.98;;;1.55;;
21661;SDS011;10992;48.170;8.596;2022-08-07T04:19:53;1.77;;;1.30;;
21661;SDS011;10992;48.170;8.596;2022-08-07T04:22:25;1.45;;;1.35;;
21661;SDS011;10992;48.170;8.596;2022-08-07T04:25:01;2.55;;;1.20;;
21661;SDS011;10992;48.170;8.596;2022-08-07T04:27:35;1.35;;;1.15;;
21661;SDS011;10992;48.170;8.596;2022-08-07T04:30:13;1.65;;;1.35;;
21661;SDS011;10992;48.170;8.596;2022-08-07T04:33:09;1.98;;;1.50;;
21661;SDS011;10992;48.170;8.596;2022-08-07T04:35:43;2.45;;;1.38;;
21661;SDS011;10992;48.170;8.596;2022-08-07T04:38:18;1.90;;;1.70;;
21661;SDS011;10992;48.170;8.596;2022-08-07T04:40:47;2.30;;;1.23;;
21661;SDS011;10992;48.170;8.596;2022-08-07T04:43:25;4.95;;;1.80;;
21661;SDS011;10992;48.170;8.596;2022-08-07T04:51:55;1.60;;;1.33;;
21661;SDS011;10992;48.170;8.596;2022-08-07T04:54:38;3.85;;;1.50;;
21661;SDS011;10992;48.170;8.596;2022-08-07T04:57:29;3.45;;;1.10;;
21661;SDS011;10992;48.170;8.596;2022-08-07T05:00:42;4.15;;;1.50;;
21661;SDS011;10992;48.170;8.596;2022-08-07T05:09:50;1.02;;;0.98;;
21661;SDS011;10992;48.170;8.596;2022-08-07T05:12:43;1.50;;;1.30;;
21661;SDS011;10992;48.170;8.596;2022-08-07T05:15:35;1.33;;;1.23;;
21661;SDS011;10992;48.170;8.596;2022-08-07T05:18:07;29.05;;;13.98;;
21661;SDS011;10992;48.170;8.596;2022-08-07T05:20:48;3.97;;;3.10;;
21661;SDS011;10992;48.170;8.596;2022-08-07T05:23:20;3.75;;;1.90;;
21661;SDS011;10992;48.170;8.596;2022-08-07T05:25:59;1.65;;;1.20;;
21661;SDS011;10992;48.170;8.596;2022-08-07T05:28:42;2.22;;;1.38;;
21661;SDS011;10992;48.170;8.596;2022-08-07T05:31:19;2.15;;;1.40;;
21661;SDS011;10992;48.170;8.596;2022-08-07T05:33:50;1.75;;;1.10;;
21661;SDS011;10992;48.170;8.596;2022-08-07T05:36:31;3.30;;;1.35;;
21661;SDS011;10992;48.170;8.596;2022-08-07T05:39:03;1.10;;;1.02;;
21661;SDS011;10992;48.170;8.596;2022-08-07T05:41:56;4.32;;;1.35;;
21661;SDS011;10992;48.170;8.596;2022-08-07T05:44:29;3.13;;;1.70;;
21661;SDS011;10992;48.170;8.596;2022-08-07T05:47:00;2.35;;;1.40;;
21661;SDS011;10992;48.170;8.596;2022-08-07T05:49:46;2.10;;;1.50;;
21661;SDS011;10992;48.170;8.596;2022-08-07T05:52:19;5.57;;;1.67;;
21661;SDS011;10992;48.170;8.596;2022-08-07T05:54:59;3.88;;;1.42;;
21661;SDS011;10992;48.170;8.596;2022-08-07T05:57:38;2.45;;;1.52;;
21661;SDS011;10992;48.170;8.596;2022-08-07T06:00:08;2.22;;;1.23;;
21661;SDS011;10992;48.170;8.596;2022-08-07T06:02:48;1.98;;;1.40;;
21661;SDS011;10992;48.170;8.596;2022-08-07T06:05:17;2.05;;;1.20;;
21661;SDS011;10992;48.170;8.596;2022-08-07T06:07:55;1.83;;;1.10;;
21661;SDS011;10992;48.170;8.596;2022-08-07T06:10:44;3.45;;;1.33;;
21661;SDS011;10992;48.170;8.596;2022-08-07T06:13:16;2.10;;;1.20;;
21661;SDS011;10992;48.170;8.596;2022-08-07T06:15:57;1.80;;;1.35;;
21661;SDS011;10992;48.170;8.596;2022-08-07T06:18:28;2.53;;;1.02;;
21661;SDS011;10992;48.170;8.596;2022-08-07T06:20:56;1.75;;;1.25;;
21661;SDS011;10992;48.170;8.596;2022-08-07T06:23:44;2.50;;;1.63;;
21661;SDS011;10992;48.170;8.596;2022-08-07T06:26:31;1.75;;;1.40;;
21661;SDS011;10992;48.170;8.596;2022-08-07T06:28:59;2.45;;;1.13;;
21661;SDS011;10992;48.170;8.596;2022-08-07T06:31:30;2.58;;;1.35;;
21661;SDS011;10992;48.170;8.596;2022-08-07T06:34:17;1.40;;;1.17;;
21661;SDS011;10992;48.170;8.596;2022-08-07T06:36:48;2.45;;;1.23;;
21661;SDS011;10992;48.170;8.596;2022-08-07T06:39:21;1.77;;;1.20;;
21661;SDS011;10992;48.170;8.596;2022-08-07T06:42:29;2.20;;;1.13;;
21661;SDS011;10992;48.170;8.596;2022-08-07T06:45:23;3.08;;;1.30;;
21661;SDS011;10992;48.170;8.596;2022-08-07T06:47:55;3.30;;;1.48;;
21661;SDS011;10992;48.170;8.596;2022-08-07T06:50:35;1.52;;;1.10;;
21661;SDS011;10992;48.170;8.596;2022-08-07T06:53:14;1.92;;;1.27;;
21661;SDS011;10992;48.170;8.596;2022-08-07T06:56:03;1.70;;;1.08;;
21661;SDS011;10992;48.170;8.596;2022-08-07T06:58:35;2.53;;;1.73;;
21661;SDS011;10992;48.170;8.596;2022-08-07T07:01:09;1.40;;;1.30;;
21661;SDS011;10992;48.170;8.596;2022-08-07T07:03:40;1.73;;;1.35;;
21661;SDS011;10992;48.170;8.596;2022-08-07T07:06:15;2.75;;;1.60;;
21661;SDS011;10992;48.170;8.596;2022-08-07T07:08:52;2.75;;;1.42;;
21661;SDS011;10992;48.170;8.596;2022-08-07T07:11:20;2.60;;;1.58;;
21661;SDS011;10992;48.170;8.596;2022-08-07T07:14:07;2.17;;;1.50;;
21661;SDS011;10992;48.170;8.596;2022-08-07T07:16:39;2.05;;;1.60;;
21661;SDS011;10992;48.170;8.596;2022-08-07T07:19:20;2.08;;;1.27;;
21661;SDS011;10992;48.170;8.596;2022-08-07T07:22:12;3.25;;;1.60;;
21661;SDS011;10992;48.170;8.596;2022-08-07T07:25:00;3.28;;;1.70;;
21661;SDS011;10992;48.170;8.596;2022-08-07T07:27:52;3.55;;;1.98;;
21661;SDS011;10992;48.170;8.596;2022-08-07T07:30:34;3.75;;;1.60;;
21661;SDS011;10992;48.170;8.596;2022-08-07T07:33:05;2.05;;;1.60;;
21661;SDS011;10992;48.170;8.596;2022-08-07T07:35:38;3.10;;;1.75;;
21661;SDS011;10992;48.170;8.596;2022-08-07T07:38:27;3.80;;;1.58;;
21661;SDS011;10992;48.170;8.596;2022-08-07T07:41:02;2.58;;;1.40;;
21661;SDS011;10992;48.170;8.596;2022-08-07T07:43:35;3.00;;;2.10;;
21661;SDS011;10992;48.170;8.596;2022-08-07T07:46:25;2.15;;;1.70;;
21661;SDS011;10992;48.170;8.596;2022-08-07T07:49:15;4.43;;;1.95;;
21661;SDS011;10992;48.170;8.596;2022-08-07T07:52:04;1.88;;;1.58;;
21661;SDS011;10992;48.170;8.596;2022-08-07T07:54:32;4.10;;;2.00;;
21661;SDS011;10992;48.170;8.596;2022-08-07T07:57:01;2.75;;;1.60;;
21661;SDS011;10992;48.170;8.596;2022-08-07T07:59:30;2.13;;;1.58;;
21661;SDS011;10992;48.170;8.596;2022-08-07T08:02:19;2.58;;;1.70;;
21661;SDS011;10992;48.170;8.596;2022-08-07T08:04:59;2.83;;;2.10;;
21661;SDS011;10992;48.170;8.596;2022-08-07T08:07:40;3.17;;;1.60;;
21661;SDS011;10992;48.170;8.596;2022-08-07T08:10:25;2.67;;;2.13;;
21661;SDS011;10992;48.170;8.596;2022-08-07T08:13:04;2.65;;;1.80;;
21661;SDS011;10992;48.170;8.596;2022-08-07T08:15:40;1.60;;;1.15;;
21661;SDS011;10992;48.170;8.596;2022-08-07T08:18:26;3.13;;;1.80;;
21661;SDS011;10992;48.170;8.596;2022-08-07T08:20:56;2.03;;;1.52;;
21661;SDS011;10992;48.170;8.596;2022-08-07T08:23:29;2.10;;;1.65;;
21661;SDS011;10992;48.170;8.596;2022-08-07T08:26:16;3.00;;;1.88;;
21661;SDS011;10992;48.170;8.596;2022-08-07T08:29:03;2.75;;;1.50;;
21661;SDS011;10992;48.170;8.596;2022-08-07T08:31:33;3.30;;;1.58;;
21661;SDS011;10992;48.170;8.596;2022-08-07T08:34:31;1.83;;;1.52;;
21661;SDS011;10992;48.170;8.596;2022-08-07T08:37:01;2.75;;;1.20;;
21661;SDS011;10992;48.170;8.596;2022-08-07T08:39:35;2.25;;;1.60;;
21661;SDS011;10992;48.170;8.596;2022-08-07T08:42:22;2.47;;;1.10;;
21661;SDS011;10992;48.170;8.596;2022-08-07T08:54:31;2.05;;;1.23;;
21661;SDS011;10992;48.170;8.596;2022-08-07T08:57:07;1.92;;;1.25;;
21661;SDS011;10992;48.170;8.596;2022-08-07T08:59:52;1.88;;;1.40;;
21661;SDS011;10992;48.170;8.596;2022-08-07T09:02:32;2.20;;;1.38;;
21661;SDS011;10992;48.170;8.596;2022-08-07T09:05:33;1.85;;;1.15;;
21661;SDS011;10992;48.170;8.596;2022-08-07T09:11:17;1.65;;;1.30;;
21661;SDS011;10992;48.170;8.596;2022-08-07T09:14:11;1.48;;;1.38;;
21661;SDS011;10992;48.170;8.596;2022-08-07T09:19:47;1.75;;;1.25;;
21661;SDS011;10992;48.170;8.596;2022-08-07T09:22:27;2.33;;;1.13;;
21661;SDS011;10992;48.170;8.596;2022-08-07T09:25:43;1.40;;;1.10;;
21661;SDS011;10992;48.170;8.596;2022-08-07T09:28:27;1.30;;;1.00;;
21661;SDS011;10992;48.170;8.596;2022-08-07T09:31:22;3.47;;;0.98;;
21661;SDS011;10992;48.170;8.596;2022-08-07T09:36:34;3.13;;;1.75;;
21661;SDS011;10992;48.170;8.596;2022-08-07T09:42:13;1.77;;;1.05;;
21661;SDS011;10992;48.170;8.596;2022-08-07T09:45:02;2.08;;;1.10;;
21661;SDS011;10992;48.170;8.596;2022-08-07T09:48:02;1.50;;;1.10;;
21661;SDS011;10992;48.170;8.596;2022-08-07T09:53:39;2.67;;;1.35;;
21661;SDS011;10992;48.170;8.596;2022-08-07T09:56:35;2.25;;;1.50;;
21661;SDS011;10992;48.170;8.596;2022-08-07T10:02:45;4.32;;;0.90;;
21661;SDS011;10992;48.170;8.596;2022-08-07T10:35:26;1.20;;;0.88;;
21661;SDS011;10992;48.170;8.596;2022-08-07T10:41:17;1.67;;;1.02;;
21661;SDS011;10992;48.170;8.596;2022-08-07T10:47:12;1.20;;;0.80;;
21661;SDS011;10992;48.170;8.596;2022-08-07T10:50:11;1.70;;;1.02;;
21661;SDS011;10992;48.170;8.596;2022-08-07T10:52:54;1.33;;;0.77;;
21661;SDS011;10992;48.170;8.596;2022-08-07T10:55:47;1.30;;;0.90;;
21661;SDS011;10992;48.170;8.596;2022-08-07T10:58:30;0.90;;;0.82;;
21661;SDS011;10992;48.170;8.596;2022-08-07T11:07:02;1.25;;;0.75;;
21661;SDS011;10992;48.170;8.596;2022-08-07T11:09:53;1.38;;;0.80;;
21661;SDS011;10992;48.170;8.596;2022-08-07T11:12:39;1.77;;;0.82;;
21661;SDS011;10992;48.170;8.596;2022-08-07T11:15:27;1.42;;;0.80;;
21661;SDS011;10992;48.170;8.596;2022-08-07T11:18:13;1.60;;;1.00;;
21661;SDS011;10992;48.170;8.596;2022-08-07T11:21:05;2.45;;;0.80;;
21661;SDS011;10992;48.170;8.596;2022-08-07T11:28:49;1.02;;;0.68;;
21661;SDS011;10992;48.170;8.596;2022-08-07T11:31:27;1.70;;;0.75;;
21661;SDS011;10992;48.170;8.596;2022-08-07T11:45:29;2.63;;;0.98;;
21661;SDS011;10992;48.170;8.596;2022-08-07T11:54:53;3.03;;;0.80;;
21661;SDS011;10992;48.170;8.596;2022-08-07T11:57:43;1.42;;;0.70;;
21661;SDS011;10992;48.170;8.596;2022-08-07T12:00:30;2.88;;;0.70;;
21661;SDS011;10992;48.170;8.596;2022-08-07T12:06:17;1.67;;;0.70;;
21661;SDS011;10992;48.170;8.596;2022-08-07T12:14:47;0.95;;;0.65;;
21661;SDS011;10992;48.170;8.596;2022-08-07T12:17:31;3.08;;;0.80;;
21661;SDS011;10992;48.170;8.596;2022-08-07T12:20:27;2.22;;;0.93;;
21661;SDS011;10992;48.170;8.596;2022-08-07T12:26:04;2.25;;;0.88;;
21661;SDS011;10992;48.170;8.596;2022-08-07T12:32:10;1.17;;;0.70;;
21661;SDS011;10992;48.170;8.596;2022-08-07T12:34:46;1.50;;;0.93;;
21661;SDS011;10992;48.170;8.596;2022-08-07T12:37:21;1.38;;;0.65;;
21661;SDS011;10992;48.170;8.596;2022-08-07T12:40:10;1.67;;;0.82;;
21661;SDS011;10992;48.170;8.596;2022-08-07T12:43:02;1.92;;;0.73;;
21661;SDS011;10992;48.170;8.596;2022-08-07T12:45:43;1.50;;;0.90;;
21661;SDS011;10992;48.170;8.596;2022-08-07T12:51:53;1.92;;;1.10;;
21661;SDS011;10992;48.170;8.596;2022-08-07T12:57:35;0.60;;;0.60;;
21661;SDS011;10992;48.170;8.596;2022-08-07T13:00:37;1.00;;;0.70;;
21661;SDS011;10992;48.170;8.596;2022-08-07T13:03:48;1.27;;;0.77;;
21661;SDS011;10992;48.170;8.596;2022-08-07T13:18:29;1.15;;;0.73;;
21661;SDS011;10992;48.170;8.596;2022-08-07T13:21:23;0.93;;;0.85;;
21661;SDS011;10992;48.170;8.596;2022-08-07T13:26:56;1.08;;;0.80;;
21661;SDS011;10992;48.170;8.596;2022-08-07T13:29:34;1.25;;;1.00;;
21661;SDS011;10992;48.170;8.596;2022-08-07T13:32:37;1.23;;;0.88;;
21661;SDS011;10992;48.170;8.596;2022-08-07T13:35:30;1.90;;;0.90;;
21661;SDS011;10992;48.170;8.596;2022-08-07T13:38:41;1.02;;;0.70;;
21661;SDS011;10992;48.170;8.596;2022-08-07T13:41:23;2.92;;;0.70;;
21661;SDS011;10992;48.170;8.596;2022-08-07T13:44:03;1.60;;;0.63;;
21661;SDS011;10992;48.170;8.596;2022-08-07T13:46:40;1.13;;;0.80;;
21661;SDS011;10992;48.170;8.596;2022-08-07T13:49:16;1.20;;;0.68;;
21661;SDS011;10992;48.170;8.596;2022-08-07T13:52:04;2.35;;;0.60;;
21661;SDS011;10992;48.170;8.596;2022-08-07T13:54:54;2.05;;;0.80;;
21661;SDS011;10992;48.170;8.596;2022-08-07T13:57:26;1.95;;;0.70;;
21661;SDS011;10992;48.170;8.596;2022-08-07T14:00:03;0.90;;;0.60;;
21661;SDS011;10992;48.170;8.596;2022-08-07T14:02:39;0.68;;;0.55;;
21661;SDS011;10992;48.170;8.596;2022-08-07T14:05:20;1.42;;;0.88;;
21661;SDS011;10992;48.170;8.596;2022-08-07T14:08:03;1.52;;;0.73;;
21661;SDS011;10992;48.170;8.596;2022-08-07T14:10:37;2.08;;;0.77;;
21661;SDS011;10992;48.170;8.596;2022-08-07T14:13:07;1.63;;;0.90;;
21661;SDS011;10992;48.170;8.596;2022-08-07T14:15:42;3.80;;;1.20;;
21661;SDS011;10992;48.170;8.596;2022-08-07T14:18:18;1.70;;;0.77;;
21661;SDS011;10992;48.170;8.596;2022-08-07T14:24:28;1.55;;;0.80;;
21661;SDS011;10992;48.170;8.596;2022-08-07T14:27:07;1.17;;;0.88;;
21661;SDS011;10992;48.170;8.596;2022-08-07T14:29:57;1.65;;;0.90;;
21661;SDS011;10992;48.170;8.596;2022-08-07T14:32:38;1.50;;;0.70;;
21661;SDS011;10992;48.170;8.596;2022-08-07T14:35:21;1.42;;;1.05;;
21661;SDS011;10992;48.170;8.596;2022-08-07T14:38:21;2.30;;;0.90;;
21661;SDS011;10992;48.170;8.596;2022-08-07T14:40:58;1.35;;;0.80;;
21661;SDS011;10992;48.170;8.596;2022-08-07T14:43:29;1.40;;;0.88;;
21661;SDS011;10992;48.170;8.596;2022-08-07T14:46:20;1.05;;;0.77;;
21661;SDS011;10992;48.170;8.596;2022-08-07T14:48:57;1.30;;;0.75;;
21661;SDS011;10992;48.170;8.596;2022-08-07T14:51:46;0.63;;;0.60;;
21661;SDS011;10992;48.170;8.596;2022-08-07T14:54:31;0.90;;;0.60;;
21661;SDS011;10992;48.170;8.596;2022-08-07T14:57:12;3.63;;;0.77;;
21661;SDS011;10992;48.170;8.596;2022-08-07T14:59:45;0.50;;;0.50;;
21661;SDS011;10992;48.170;8.596;2022-08-07T15:02:32;1.02;;;0.50;;
21661;SDS011;10992;48.170;8.596;2022-08-07T15:05:04;1.20;;;0.73;;
21661;SDS011;10992;48.170;8.596;2022-08-07T15:07:46;1.30;;;0.70;;
21661;SDS011;10992;48.170;8.596;2022-08-07T15:10:34;1.23;;;0.98;;
21661;SDS011;10992;48.170;8.596;2022-08-07T15:13:24;1.20;;;0.60;;
21661;SDS011;10992;48.170;8.596;2022-08-07T15:16:03;2.17;;;0.73;;
21661;SDS011;10992;48.170;8.596;2022-08-07T15:18:39;2.45;;;0.82;;
21661;SDS011;10992;48.170;8.596;2022-08-07T15:21:24;1.67;;;0.63;;
21661;SDS011;10992;48.170;8.596;2022-08-07T15:24:17;1.77;;;0.80;;
21661;SDS011;10992;48.170;8.596;2022-08-07T15:27:16;6.07;;;0.73;;
21661;SDS011;10992;48.170;8.596;2022-08-07T15:29:49;2.50;;;0.80;;
21661;SDS011;10992;48.170;8.596;2022-08-07T15:32:43;1.50;;;0.60;;
21661;SDS011;10992;48.170;8.596;2022-08-07T15:35:33;1.48;;;0.63;;
21661;SDS011;10992;48.170;8.596;2022-08-07T15:38:28;1.85;;;0.80;;
21661;SDS011;10992;48.170;8.596;2022-08-07T15:41:16;1.52;;;0.80;;
21661;SDS011;10992;48.170;8.596;2022-08-07T15:44:09;1.15;;;0.80;;
21661;SDS011;10992;48.170;8.596;2022-08-07T15:46:37;1.25;;;0.70;;
21661;SDS011;10992;48.170;8.596;2022-08-07T15:49:29;1.27;;;0.70;;
21661;SDS011;10992;48.170;8.596;2022-08-07T15:52:20;2.17;;;0.68;;
21661;SDS011;10992;48.170;8.596;2022-08-07T15:54:57;1.23;;;0.80;;
21661;SDS011;10992;48.170;8.596;2022-08-07T15:57:29;1.20;;;0.70;;
21661;SDS011;10992;48.170;8.596;2022-08-07T16:00:13;1.00;;;0.60;;
21661;SDS011;10992;48.170;8.596;2022-08-07T16:03:03;1.10;;;0.52;;
21661;SDS011;10992;48.170;8.596;2022-08-07T16:05:59;0.80;;;0.63;;
21661;SDS011;10992;48.170;8.596;2022-08-07T16:08:28;0.90;;;0.68;;
21661;SDS011;10992;48.170;8.596;2022-08-07T16:11:05;1.40;;;0.90;;
21661;SDS011;10992;48.170;8.596;2022-08-07T16:25:16;1.10;;;0.70;;
21661;SDS011;10992;48.170;8.596;2022-08-07T16:34:23;2.88;;;1.00;;
21661;SDS011;10992;48.170;8.596;2022-08-07T16:37:03;0.75;;;0.50;;
21661;SDS011;10992;48.170;8.596;2022-08-07T16:50:23;1.30;;;0.85;;
21661;SDS011;10992;48.170;8.596;2022-08-07T16:53:23;2.22;;;0.90;;
21661;SDS011;10992;48.170;8.596;2022-08-07T16:56:18;1.40;;;0.95;;
21661;SDS011;10992;48.170;8.596;2022-08-07T16:59:06;2.88;;;1.10;;
21661;SDS011;10992;48.170;8.596;2022-08-07T17:07:58;3.03;;;0.90;;
21661;SDS011;10992;48.170;8.596;2022-08-07T17:10:32;1.00;;;0.90;;
21661;SDS011;10992;48.170;8.596;2022-08-07T17:13:31;1.55;;;1.08;;
21661;SDS011;10992;48.170;8.596;2022-08-07T17:16:32;2.17;;;1.00;;
21661;SDS011;10992;48.170;8.596;2022-08-07T17:19:43;4.50;;;0.90;;
21661;SDS011;10992;48.170;8.596;2022-08-07T17:22:35;1.80;;;0.80;;
21661;SDS011;10992;48.170;8.596;2022-08-07T17:25:18;3.00;;;0.80;;
21661;SDS011;10992;48.170;8.596;2022-08-07T17:28:13;2.00;;;0.90;;
21661;SDS011;10992;48.170;8.596;2022-08-07T17:31:00;1.10;;;1.00;;
21661;SDS011;10992;48.170;8.596;2022-08-07T17:33:45;1.38;;;1.02;;
21661;SDS011;10992;48.170;8.596;2022-08-07T17:36:34;2.47;;;0.95;;
21661;SDS011;10992;48.170;8.596;2022-08-07T17:39:29;1.42;;;1.02;;
21661;SDS011;10992;48.170;8.596;2022-08-07T17:45:22;2.08;;;1.13;;
21661;SDS011;10992;48.170;8.596;2022-08-07T17:53:29;0.95;;;0.85;;
21661;SDS011;10992;48.170;8.596;2022-08-07T17:56:37;1.10;;;1.00;;
21661;SDS011;10992;48.170;8.596;2022-08-07T17:59:29;1.25;;;1.15;;
21661;SDS011;10992;48.170;8.596;2022-08-07T18:02:39;1.90;;;1.20;;
21661;SDS011;10992;48.170;8.596;2022-08-07T18:05:02;1.25;;;1.10;;
21661;SDS011;10992;48.170;8.596;2022-08-07T18:10:53;3.17;;;1.10;;
21661;SDS011;10992;48.170;8.596;2022-08-07T18:16:51;1.67;;;1.17;;
21661;SDS011;10992;48.170;8.596;2022-08-07T18:19:41;1.00;;;0.82;;
21661;SDS011;10992;48.170;8.596;2022-08-07T18:22:37;1.95;;;1.00;;
21661;SDS011;10992;48.170;8.596;2022-08-07T18:25:14;1.55;;;1.00;;
21661;SDS011;10992;48.170;8.596;2022-08-07T18:34:31;1.13;;;0.93;;
21661;SDS011;10992;48.170;8.596;2022-08-07T18:49:02;1.20;;;0.88;;
21661;SDS011;10992;48.170;8.596;2022-08-07T18:51:53;2.30;;;0.80;;
21661;SDS011;10992;48.170;8.596;2022-08-07T18:58:15;2.65;;;1.00;;
21661;SDS011;10992;48.170;8.596;2022-08-07T19:01:24;1.55;;;0.93;;
21661;SDS011;10992;48.170;8.596;2022-08-07T19:07:24;1.52;;;1.00;;
21661;SDS011;10992;48.170;8.596;2022-08-07T19:10:03;1.73;;;1.38;;
21661;SDS011;10992;48.170;8.596;2022-08-07T19:12:51;1.70;;;1.05;;
21661;SDS011;10992;48.170;8.596;2022-08-07T19:15:46;2.90;;;1.15;;
21661;SDS011;10992;48.170;8.596;2022-08-07T19:21:42;0.85;;;0.73;;
21661;SDS011;10992;48.170;8.596;2022-08-07T19:24:40;1.60;;;1.08;;
21661;SDS011;10992;48.170;8.596;2022-08-07T19:27:13;1.52;;;1.13;;
21661;SDS011;10992;48.170;8.596;2022-08-07T19:30:07;1.33;;;1.17;;
21661;SDS011;10992;48.170;8.596;2022-08-07T19:33:03;1.85;;;1.23;;
21661;SDS011;10992;48.170;8.596;2022-08-07T19:35:38;2.30;;;1.40;;
21661;SDS011;10992;48.170;8.596;2022-08-07T19:38:09;2.80;;;1.40;;
21661;SDS011;10992;48.170;8.596;2022-08-07T19:40:43;1.63;;;1.45;;
21661;SDS011;10992;48.170;8.596;2022-08-07T19:43:29;2.13;;;1.30;;
21661;SDS011;10992;48.170;8.596;2022-08-07T19:46:16;2.42;;;1.60;;
21661;SDS011;10992;48.170;8.596;2022-08-07T19:49:04;3.58;;;1.70;;
21661;SDS011;10992;48.170;8.596;2022-08-07T19:51:33;2.50;;;1.85;;
21661;SDS011;10992;48.170;8.596;2022-08-07T19:54:19;1.50;;;1.40;;
21661;SDS011;10992;48.170;8.596;2022-08-07T19:57:06;2.28;;;1.80;;
21661;SDS011;10992;48.170;8.596;2022-08-07T19:59:58;2.00;;;1.80;;